メインページ
METAR-TAF:

METAR-TAF

空港 :

フンシャル, マデイラ諸島, ポルトガル

マデイラ空港

緯度: 32-41-52N, 経度: 016-46-28W, 海抜: 59m

現時点の気象観測

当レポートは25分前の06:00(UTC)に作成
の風 9kt、北/北西から北/北東の間で変化する
気温 17°C
湿度 82%
気圧 1028 hPa
視程10km以上
高度1500ftの雲はほとんどない

METAR: LPMA 140600Z 36009KT 330V030 9999 FEW015 17/14 Q1028

時間: 06:25 (06:25 UTC)

予報

当レポートは1時間25分前の05:00(UTC)に作成
予報は14日の 06時(UTC)から 15日の 06時(UTC)まで有効
の風 12kt
視程10km以上
高度1500ftの雲は散在している
確率 30% :
14日の 06時(UTC)から 14日の 12時(UTC)まで一時的に
の風 15kt、最大25ktの突風を伴う
高度1300ftの千切れ雲あり

TAF: LPMA 140500Z 1406/1506 01012KT 9999 SCT015 PROB30 TEMPO 1406/1412 01015G25KT BKN013

4,000以上の空港の気象観測と天気予報(METAR報とTAF報)

利用可能な観測所は地図上に黄色い丸と赤い丸で示す。

丸の上にカーソルを重ねると観測所名を参照できる。

次にクリックすると気象観測と天気予報を参照できる。

マップの切り替え:黒色「×」印の緑ボタンをクリックして拡大、「-」印の緑ボタンをクリックして縮小、緑色の三角印をクリックして隣りの地図に切り替え


METAR-TAF: